Date,TemperatureHighF,TemperatureAvgF,TemperatureLowF,DewpointHighF,DewpointAvgF,DewpointLowF,HumidityHigh,HumidityAvg,HumidityLow,PressureMaxIn,PressureMinIn,WindSpeedMaxMPH,WindSpeedAvgMPH,GustSpeedMaxMPH,PrecipitationSumIn
2013-1-1,45.0,33.2,21.9,27.7,21.8,15.9,80,64,39,30.11,29.99,11,4,11,0.00
2013-1-2,51.1,37.5,25.7,28.6,23.4,16.1,71,58,37,30.03,29.92,19,6,19,0.00
2013-1-3,47.3,36.6,31.1,34.8,28.0,22.7,92,72,48,30.09,29.94,20,9,20,0.00
2013-1-4,47.5,35.9,29.8,32.1,28.5,23.6,96,75,52,30.16,30.06,12,5,14,0.00
2013-1-5,57.4,39.7,26.2,32.1,22.0,14.9,76,52,24,30.22,30.09,8,4,8,0.00
2013-1-6,57.0,45.8,35.6,26.9,19.0,9.6,62,35,24,30.14,29.88,21,9,21,0.00
2013-1-7,50.5,43.7,36.5,25.8,20.6,14.0,61,43,23,29.89,29.84,19,9,19,0.00
2013-1-8,44.4,42.7,41.2,20.5,18.4,17.1,43,38,33,29.96,29.93,6,5,6,0.00
2013-1-9,60.3,47.0,35.4,23.4,18.9,12.1,51,34,22,30.09,29.95,16,7,16,0.00
2013-1-10,62.8,50.4,37.2,22.9,17.2,11.5,39,27,21,29.95,29.73,34,18,34,0.01
2013-1-11,49.1,38.5,25.5,34.6,15.5,4.1,75,41,22,29.88,29.73,31,9,31,0.01
2013-1-12,39.0,27.9,19.2,12.9,5.5,1.7,52,39,24,29.90,29.77,20,6,20,0.00
2013-1-13,40.1,25.9,17.6,5.8,0.6,-8.6,51,34,22,29.99,29.17,12,6,12,0.00
2013-1-14,37.2,23.9,14.4,5.5,-1.4,-7.0,44,33,23,30.06,29.92,17,7,17,0.00
2013-1-15,36.7,23.1,18.1,4.2,-4.7,-8.1,32,29,23,30.23,30.06,8,5,8,0.00
2013-1-16,48.6,34.9,20.7,12.2,3.0,-8.7,30,26,22,30.27,30.14,20,7,20,0.00
2013-1-17,56.5,44.2,29.5,19.2,11.4,3.3,36,26,22,30.25,30.13,17,10,17,0.00
2013-1-18,60.6,42.7,27.9,20.5,12.0,6.6,44,29,20,30.23,30.09,11,5,11,0.00
2013-1-19,66.2,50.6,36.1,27.0,19.8,7.3,50,31,19,30.22,30.07,10,4,10,0.00
2013-1-20,67.1,54.4,41.5,31.9,27.4,21.4,60,37,23,30.16,30.00,14,6,14,0.00
2013-1-21,59.2,56.5,54.0,30.2,27.8,25.2,40,34,27,30.12,30.04,8,7,8,0.00
2013-1-22,59.2,59.2,59.2,25.2,25.2,25.2,27,27,27,30.20,30.08,8,8,8,0.00
2013-1-23,59.7,57.1,0.0,25.2,25.0,24.5,27,25,26,30.23,30.11,9,7,9,0.00
2013-1-24,64.8,57.8,50.0,38.2,34.4,31.9,54,42,33,30.22,29.92,8,4,8,0.00
2013-1-25,56.7,56.7,56.7,44.2,44.2,44.2,63,63,63,29.80,29.76,15,15,15,0.00
2013-1-26,56.7,55.0,47.8,44.2,43.9,42.6,82,67,63,29.78,29.67,15,14,15,0.19
2013-1-27,58.1,49.1,42.1,45.7,41.1,36.3,97,75,53,29.77,29.69,15,8,15,1.55
2013-1-28,47.5,42.2,30.4,40.6,35.1,26.6,96,76,63,29.70,29.62,28,7,28,0.00
2013-1-29,47.1,38.4,0.0,30.1,22.3,17.3,79,52,33,30.14,29.92,16,6,16,0.00
2013-1-30,52.3,38.7,26.4,24.4,17.7,10.2,71,46,23,30.21,29.93,12,4,12,0.00
2013-1-31,59.7,42.9,28.6,30.5,24.1,18.7,70,50,25,29.96,29.87,8,3,8,0.00
2013-2-1,69.1,48.3,31.5,30.3,25.2,20.2,66,44,19,29.98,29.88,8,3,8,0.00
2013-2-2,72.9,53.1,37.9,30.0,24.5,21.8,57,36,16,30.02,29.89,10,3,10,0.00
2013-2-3,62.4,52.7,45.0,43.6,25.4,20.3,74,35,24,29.93,29.77,21,3,21,1.39
2013-2-4,64.4,53.2,34.0,41.1,37.1,18.2,83,57,36,30.06,29.85,10,3,10,0.04
2013-2-5,67.5,52.5,39.4,43.2,35.8,31.4,85,57,27,29.96,29.84,14,5,14,0.02
2013-2-6,67.8,50.6,37.4,40.1,34.3,28.5,86,58,25,29.95,29.83,21,5,21,0.05
2013-2-7,64.0,49.3,36.1,37.6,30.4,23.4,79,52,22,30.02,29.88,11,4,11,0.02
2013-2-8,55.8,46.6,38.7,34.0,23.0,15.7,83,40,22,30.11,29.84,31,7,31,3.20
2013-2-9,47.7,39.1,27.1,31.6,23.2,15.7,78,54,31,30.08,29.87,26,10,26,7.32
2013-2-10,57.4,37.9,24.6,25.5,15.0,2.1,76,43,21,30.08,29.97,24,5,24,0.00
2013-2-11,52.2,37.0,25.2,32.2,18.8,3.3,98,52,25,30.14,30.00,30,7,30,0.07
2013-2-12,33.3,25.6,18.3,22.0,19.3,13.5,91,78,52,30.20,29.92,9,4,9,0.04
2013-2-13,39.6,34.5,25.2,18.0,15.6,12.8,70,46,38,29.94,29.90,8,4,8,0.01
2013-2-14,63.3,44.7,28.8,25.5,19.6,14.4,59,39,21,29.96,29.84,14,4,14,0.01
2013-2-15,60.1,45.9,36.5,28.0,23.1,18.7,59,43,23,30.06,29.95,13,5,13,0.01
2013-2-16,66.4,52.9,39.6,22.6,17.0,8.9,28,24,18,29.94,29.74,18,8,18,0.00
2013-2-17,71.4,53.2,35.6,24.3,15.9,3.6,31,23,16,29.74,29.54,35,9,35,8.56
2013-2-18,67.1,52.7,34.2,22.8,16.5,-2.3,34,24,18,29.75,29.62,21,5,21,0.04
2013-2-19,60.4,50.7,45.3,36.9,23.9,10.9,56,36,22,29.65,29.39,40,16,40,11.49
2013-2-20,45.1,40.7,37.4,30.0,25.2,12.7,67,55,27,29.44,29.38,47,22,47,29.62
2013-2-21,47.1,34.7,20.5,31.7,24.7,15.2,83,68,46,29.68,29.57,16,4,16,0.05
2013-2-22,57.7,39.8,27.3,34.2,27.5,21.6,88,65,27,29.78,29.64,19,4,19,0.00
2013-2-23,66.9,45.2,26.1,32.5,22.8,11.4,85,48,19,29.78,29.53,19,4,19,0.00
2013-2-24,52.0,42.4,27.5,22.2,12.3,-0.8,38,29,22,29.71,29.49,40,14,40,0.54
2013-2-25,54.1,36.7,25.7,16.1,8.0,2.3,48,30,21,29.81,29.68,10,4,10,0.00
2013-2-26,65.7,42.9,25.7,52.3,13.5,3.3,66,32,19,29.75,29.59,26,5,26,0.00
2013-2-27,57.9,42.9,27.9,20.8,12.3,4.1,46,29,21,29.84,29.73,11,5,11,0.00
2013-2-28,60.6,44.6,29.5,21.6,11.3,3.3,37,26,21,29.96,29.82,12,6,12,0.00
2013-3-1,69.1,50.8,33.6,62.1,14.8,1.8,97,24,17,29.98,29.85,11,5,11,0.00
2013-3-2,46.4,44.0,41.0,22.3,18.2,13.8,44,36,27,29.97,29.94,9,6,9,0.00
2013-3-7,69.4,55.9,46.4,26.4,22.9,13.4,38,28,18,30.24,29.92,17,4,17,0.00
2013-3-8,56.3,49.3,37.9,45.6,37.2,25.2,89,65,34,29.96,29.82,36,13,36,1.81
2013-3-9,53.8,41.5,32.5,35.2,30.6,24.4,84,66,42,30.05,29.90,33,8,33,0.26
2013-3-10,56.8,43.9,33.1,38.2,30.5,23.0,90,62,28,30.14,30.03,16,5,16,0.00
2013-3-11,68.5,50.6,32.9,32.9,25.4,21.2,75,42,17,30.16,30.00,15,5,15,0.00
2013-3-12,75.0,56.7,39.4,72.4,26.1,21.7,97,34,15,30.14,30.02,11,4,11,0.00
2013-3-13,82.4,64.3,45.3,31.2,25.7,21.0,43,25,14,30.20,30.03,11,4,11,0.00
2013-3-14,85.1,64.8,47.3,35.1,25.2,17.9,38,24,14,30.21,30.05,10,4,10,0.00
2013-3-15,88.0,64.5,50.0,35.8,23.5,16.0,28,21,14,30.12,29.91,16,4,16,0.00
2013-3-16,83.3,67.4,50.4,34.7,23.5,15.2,26,19,14,29.91,29.73,30,10,30,0.89
2013-3-17,77.9,64.0,50.9,31.0,23.1,14.6,33,21,16,29.90,28.19,30,10,30,0.06
2013-3-18,78.6,63.2,46.4,33.7,27.1,21.3,55,27,15,29.96,29.84,21,7,21,0.07
2013-3-19,76.1,61.0,45.0,31.9,27.6,18.3,53,30,16,30.00,29.88,24,6,24,0.01
2013-3-20,83.3,63.0,48.2,35.4,29.4,18.2,48,31,12,34.23,29.83,17,6,17,0.00
2013-3-21,78.6,63.2,49.6,30.8,26.3,21.5,45,26,15,29.85,29.72,21,6,21,0.00
2013-3-22,61.2,58.4,51.6,30.4,26.9,24.6,44,30,25,29.75,29.69,22,6,22,0.00
2013-3-23,73.8,62.4,45.3,72.0,21.5,13.2,97,21,15,29.98,29.88,26,8,26,0.05
2013-3-24,74.5,56.7,41.2,72.4,19.3,9.6,97,24,15,30.01,29.84,21,6,21,0.00
2013-3-25,74.8,57.1,42.1,28.2,18.1,10.4,30,22,15,30.03,29.89,14,5,14,0.00
2013-3-26,81.0,63.6,45.0,30.2,22.9,15.7,36,22,14,30.03,29.87,29,7,29,0.00
2013-3-27,81.9,64.8,49.3,30.5,25.1,17.3,36,23,14,30.01,29.91,36,7,36,0.44
2013-3-28,79.5,64.2,46.6,35.3,28.8,22.0,55,29,16,30.07,29.97,18,5,18,0.18
2013-3-29,81.7,65.5,47.7,32.6,27.1,21.3,48,25,14,30.12,29.98,19,5,19,0.00
2013-3-30,79.2,63.8,51.6,30.5,23.4,16.7,32,22,15,30.08,29.94,21,5,21,0.00
2013-3-31,81.5,64.9,50.9,32.4,26.8,21.3,41,25,15,30.06,29.90,17,6,17,0.07
2013-4-1,81.7,63.5,44.4,33.3,26.5,19.6,47,26,14,30.03,29.87,27,7,27,0.00
2013-4-2,77.7,60.1,42.3,31.4,25.5,17.3,55,29,15,29.97,29.84,24,6,24,0.00
2013-4-3,75.9,60.8,47.1,30.0,24.8,18.1,45,27,15,30.06,29.93,21,7,21,0.00
2013-4-4,84.7,65.5,49.1,34.4,26.3,21.3,42,24,14,30.11,29.93,17,5,17,0.00
2013-4-5,85.1,67.7,49.8,36.0,26.8,18.3,36,22,14,30.00,29.86,25,7,25,0.00
2013-4-6,81.5,65.6,51.8,36.6,31.4,24.3,48,30,16,30.00,29.85,26,6,26,0.00
2013-4-7,82.2,65.5,48.4,81.0,30.9,25.3,97,30,15,29.94,29.78,23,7,23,0.00
2013-4-8,75.0,63.0,50.7,40.2,34.4,23.8,55,36,16,29.80,29.49,50,19,50,13.62
2013-4-9,59.9,48.3,41.9,40.5,33.2,24.5,91,58,28,29.90,29.59,50,14,50,1.32
2013-4-10,66.7,51.1,35.2,29.6,25.0,20.2,65,39,21,29.99,29.87,24,7,24,0.00
2013-4-11,75.0,56.7,37.9,29.6,23.5,16.7,58,30,16,30.00,29.77,17,5,17,0.00
2013-4-12,77.5,60.0,46.0,30.8,24.9,21.8,44,28,16,29.88,29.75,21,5,21,0.00
2013-4-13,80.4,64.6,48.2,31.1,26.9,23.2,44,26,16,31.35,29.76,21,7,21,0.00
2013-4-14,79.0,65.9,52.5,35.8,30.4,23.1,42,28,16,29.86,29.73,33,8,33,0.00
2013-4-15,80.1,67.2,56.1,39.0,30.0,20.8,42,26,16,29.84,29.76,29,11,31,0.00
2013-4-16,79.9,61.5,51.8,46.3,33.2,23.9,64,37,15,29.87,29.75,42,12,42,0.22
2013-4-17,66.9,57.0,43.0,45.6,26.6,9.4,63,32,21,29.98,29.75,47,18,47,0.77
2013-4-18,58.1,45.8,38.8,21.5,11.8,9.1,30,25,21,30.11,29.97,9,4,9,0.00
2013-4-19,73.4,55.1,35.1,27.4,16.6,4.1,31,22,15,30.15,29.93,20,5,20,0.00
2013-4-20,80.6,61.8,41.7,28.7,20.3,8.5,26,21,15,30.01,29.87,23,6,23,0.00
2013-4-21,86.7,68.2,51.6,79.7,24.2,15.2,97,19,14,30.07,29.92,21,6,21,0.00
2013-4-22,87.6,70.5,47.8,34.6,25.7,15.7,35,19,14,30.02,29.82,21,6,21,0.04
2013-4-23,84.6,69.7,50.2,80.3,26.0,16.6,97,20,14,29.92,29.81,25,8,25,0.00
2013-4-24,86.5,70.8,49.5,36.0,27.3,18.8,38,20,14,29.98,29.83,25,7,25,0.00
2013-4-25,81.3,69.3,52.0,32.2,25.3,17.7,28,19,14,30.03,29.86,37,15,37,0.14
2013-4-26,82.6,63.6,43.2,81.4,25.6,19.8,97,26,14,30.12,29.96,17,4,17,0.00
2013-4-27,85.5,68.6,53.2,80.8,26.3,20.0,97,21,14,30.09,29.89,14,5,14,0.00
2013-4-28,87.1,71.7,56.8,81.2,27.2,20.8,97,20,14,29.98,29.78,11,5,11,0.01
2013-4-29,89.8,74.1,59.4,35.9,27.2,20.9,23,18,13,29.91,29.73,20,6,20,0.00
2013-4-30,89.2,75.6,62.8,80.5,28.0,22.2,97,18,14,29.88,29.76,27,9,27,0.00
2013-5-1,86.7,70.5,54.9,36.0,27.0,21.7,30,20,14,30.02,29.84,18,6,18,0.00
2013-5-2,80.8,67.5,54.7,31.3,25.9,21.4,35,21,15,30.14,30.00,21,8,21,0.00
2013-5-3,78.6,63.2,50.5,30.0,23.3,18.5,31,22,15,30.11,29.83,28,9,28,0.00
2013-5-4,86.0,70.4,51.8,37.4,28.3,15.7,30,21,15,29.88,29.75,24,6,24,0.00
2013-5-5,84.6,70.5,59.7,38.3,30.1,22.1,36,23,15,29.95,29.82,27,9,27,0.00
2013-5-6,80.8,65.8,52.0,44.0,37.9,31.6,67,38,19,29.99,29.87,30,6,30,0.00
2013-5-7,80.8,66.0,52.0,40.0,33.2,24.3,56,31,16,30.00,29.87,27,7,27,0.00
2013-5-8,81.3,64.1,47.1,39.7,31.0,23.7,59,31,15,30.03,29.91,27,7,27,0.00
2013-5-9,80.8,66.1,45.5,42.1,34.1,28.7,67,35,15,30.00,29.87,17,6,17,0.00
2013-5-10,65.1,58.4,54.1,38.0,35.1,33.2,46,42,35,30.09,30.03,6,2,6,0.01
2013-5-11,79.0,65.2,48.4,45.3,36.4,30.8,62,36,21,30.12,30.00,18,5,18,0.00
2013-5-12,79.9,67.4,51.3,40.7,34.4,27.5,60,32,16,30.16,29.97,18,6,18,0.01
2013-5-13,84.2,70.4,57.4,37.0,30.9,22.1,36,24,14,30.11,29.93,18,5,18,0.00
2013-5-14,87.1,72.4,52.3,41.4,35.2,27.5,50,27,16,30.05,29.86,21,5,21,0.00
2013-5-15,90.0,76.9,58.8,42.3,35.2,29.6,40,23,16,30.04,29.89,24,11,24,0.00
2013-5-16,90.7,76.8,56.8,39.5,31.5,23.1,35,20,13,29.99,29.07,22,8,22,0.00
2013-5-17,89.2,75.4,56.3,36.0,31.2,24.8,33,20,14,29.94,29.83,28,7,28,0.00
2013-5-20,73.9,67.2,61.0,30.4,24.0,21.9,23,19,16,29.99,29.92,14,5,14,0.00
2013-5-21,90.7,73.2,54.5,79.9,27.5,20.3,97,19,13,30.03,29.86,21,5,21,0.00
2013-5-22,94.3,77.1,57.6,58.6,29.8,21.3,49,18,13,29.95,29.81,25,7,25,0.00
2013-5-23,92.8,76.1,55.6,38.3,30.4,21.3,35,20,13,29.98,29.87,22,8,22,0.00
2013-5-24,140.0,86.5,54.9,99.9,49.8,29.4,52,32,13,30.05,29.93,17,5,17,0.00
2013-5-25,140.0,140.0,140.0,99.9,99.9,99.9,55,40,34,30.02,29.90,24,6,24,0.00
2013-5-26,140.0,140.0,140.0,99.9,99.9,99.9,48,39,34,30.01,29.91,27,8,27,0.00
2013-5-27,140.0,140.0,140.0,99.9,99.9,99.9,58,41,34,29.96,29.78,20,5,20,0.00
2013-6-5,71.1,15.1,0.0,99.9,83.5,23.1,17,4,17,30.00,29.92,8,1,8,0.00
2013-6-6,97.0,81.6,66.4,79.7,31.7,19.1,97,17,13,30.00,29.82,13,5,13,0.00
2013-6-7,101.3,84.5,67.1,45.2,33.5,25.2,28,16,11,29.98,29.78,11,4,11,0.00
2013-6-8,99.3,84.5,66.2,40.0,34.0,18.2,27,17,11,29.98,29.87,22,7,22,0.00
2013-6-9,97.9,84.4,69.6,45.3,35.9,28.7,33,19,12,30.03,29.91,19,7,19,0.00
2013-6-10,100.2,84.8,66.2,45.3,33.4,18.4,27,16,11,30.06,29.89,22,4,22,0.00
2013-6-11,102.4,86.3,67.5,45.7,35.2,16.6,29,17,10,30.05,29.90,18,5,18,0.06
2013-6-12,100.8,86.6,67.8,44.7,35.0,19.6,26,16,11,30.09,29.90,17,5,17,0.00
2013-6-13,97.0,84.3,68.7,51.0,42.2,33.1,43,24,12,30.07,29.90,24,6,24,0.24
2013-6-14,92.5,77.4,65.3,62.0,52.4,44.0,70,43,26,30.04,29.93,17,4,17,0.00
2013-6-15,97.7,78.2,64.6,61.8,53.9,46.7,64,45,23,30.07,29.96,19,4,19,0.00
2013-6-16,98.2,81.7,64.9,56.9,47.2,30.5,64,34,12,30.10,29.95,26,5,26,0.00
2013-6-17,98.2,82.8,64.2,39.9,33.7,23.1,31,18,12,30.08,29.92,21,5,21,0.00
2013-6-18,99.9,82.6,62.4,38.6,32.2,23.8,26,17,11,30.03,29.24,30,6,30,0.00
2013-6-19,100.2,83.0,62.1,41.0,32.3,23.1,27,17,11,29.98,29.82,26,6,26,0.00
2013-6-20,99.9,82.1,60.4,40.2,32.8,21.7,33,18,11,31.49,29.88,26,6,26,0.00
2013-6-21,99.1,82.4,63.0,45.5,38.5,33.1,41,23,11,30.04,29.91,28,6,28,0.00
2013-6-22,98.4,83.1,66.9,41.7,34.3,23.1,31,18,12,30.03,29.88,36,6,36,0.00
2013-6-23,96.8,81.4,61.0,40.4,35.9,29.6,36,21,13,30.00,29.85,31,6,31,0.00
2013-6-24,95.5,82.9,68.4,41.9,37.1,28.5,32,20,13,30.01,29.88,25,6,25,0.00
2013-6-25,97.2,82.1,61.2,44.2,36.5,28.7,45,21,12,30.08,29.96,29,7,29,0.00
2013-6-26,76.5,72.6,70.2,33.7,31.9,29.5,25,22,20,30.08,30.06,8,2,8,0.00
2013-6-27,86.4,84.1,81.9,41.1,38.4,34.1,22,20,18,29.97,29.92,11,4,11,0.00
2013-6-28,102.4,87.7,72.3,45.7,36.9,26.6,25,17,11,30.00,29.84,13,4,13,0.00
2013-6-29,103.8,88.0,72.0,46.0,40.1,35.0,31,20,11,29.97,29.78,14,4,14,0.00
2013-6-30,100.0,83.5,66.2,64.1,47.3,37.3,93,34,12,29.97,29.75,27,7,27,0.28
2013-7-1,95.7,82.0,68.7,63.6,58.1,47.7,82,47,23,29.98,29.79,11,3,11,0.00
2013-7-2,92.5,79.1,65.8,62.4,56.5,49.8,85,49,25,30.05,29.84,21,5,21,0.00
2013-7-3,95.0,80.3,63.7,62.9,55.3,49.0,84,46,25,29.99,29.76,24,5,24,0.00
2013-7-4,96.3,80.7,65.7,63.9,59.3,51.9,90,53,23,29.91,29.75,17,4,17,0.00
2013-7-8,79.9,77.8,75.7,62.5,60.6,57.9,63,56,48,29.99,29.93,10,4,10,0.00
2013-7-9,91.8,78.4,66.0,69.4,64.4,57.7,99,66,34,30.03,29.86,21,6,21,0.00
2013-7-10,86.7,77.0,63.7,70.3,65.7,61.5,99,70,45,30.03,29.84,24,5,24,0.00
2013-7-11,84.9,73.7,63.3,69.2,65.7,61.5,99,78,51,29.99,29.86,17,3,17,0.00
2013-7-12,88.5,74.2,66.2,71.3,65.1,59.9,99,75,42,29.98,29.84,13,2,13,0.00
2013-7-13,89.2,76.9,65.8,65.5,62.1,56.4,86,62,37,29.97,29.84,20,4,20,0.00
2013-7-14,92.8,78.4,65.1,64.9,60.7,57.0,88,56,34,29.97,29.65,18,4,18,0.00
2013-7-15,90.5,76.9,65.3,67.0,62.0,58.4,99,62,38,30.13,29.80,23,7,23,0.00
2013-7-16,79.3,67.8,62.8,67.4,64.7,61.9,99,91,63,30.03,29.92,14,3,14,0.00
2013-7-17,86.0,72.7,61.2,66.9,61.0,55.6,99,70,39,30.06,29.91,15,4,15,0.00
2013-7-18,81.7,71.8,65.7,66.7,60.6,57.9,86,69,49,30.03,29.90,14,5,14,0.00
2013-7-19,73.2,69.4,64.2,66.6,64.0,60.6,95,83,71,29.97,29.85,10,2,10,0.00
2013-7-20,78.3,71.6,64.8,68.9,64.7,62.1,98,80,60,29.92,29.80,12,3,12,0.00
2013-7-21,82.8,72.9,62.8,68.1,63.6,60.2,99,74,48,29.95,29.83,14,3,14,0.00
2013-7-22,84.0,71.1,62.2,69.8,63.2,58.4,91,77,49,29.99,29.89,13,3,60,0.00
2013-7-23,87.6,75.0,65.5,67.4,63.7,60.8,93,70,44,30.00,29.21,24,6,24,0.00
2013-7-24,82.4,72.9,64.8,68.1,64.8,61.9,96,77,52,29.97,29.87,11,3,11,0.00
2013-7-25,86.4,73.7,65.5,69.2,65.9,61.7,96,78,48,30.03,29.92,14,3,14,0.00
2013-7-26,87.4,72.1,65.1,72.9,66.2,63.2,96,83,48,30.09,30.00,14,2,14,0.00
2013-7-27,84.7,72.0,63.7,71.7,65.6,61.3,96,81,50,30.05,29.23,9,2,9,0.00
2013-7-28,90.7,77.2,64.9,68.3,61.3,55.3,88,61,34,29.93,29.79,17,4,17,0.00
2013-7-29,90.0,78.0,63.5,63.7,57.0,51.7,82,50,32,30.01,29.89,16,4,16,0.00
2013-7-30,89.2,77.7,64.9,64.4,57.7,53.6,75,51,32,30.09,29.96,12,3,12,0.00
2013-7-31,90.3,78.3,70.0,66.8,60.6,55.6,79,56,35,30.05,29.91,17,4,17,0.00
2013-8-1,80.8,72.6,67.3,68.3,63.1,59.4,94,72,53,30.04,29.92,24,3,24,0.00
2013-8-2,83.3,72.1,64.4,70.2,64.2,61.0,91,77,55,29.99,29.91,27,3,27,0.00
2013-8-3,88.2,77.0,62.6,66.5,61.7,55.0,82,60,38,30.01,29.90,14,4,14,0.00
2013-8-4,88.0,77.2,69.8,66.3,61.9,57.6,77,60,43,30.01,29.88,14,4,14,0.00
2013-8-5,82.4,72.0,60.3,64.2,60.1,56.1,99,69,42,30.06,29.92,29,4,29,0.00
2013-8-6,63.5,63.1,62.6,61.8,61.2,60.6,94,93,91,29.93,29.91,5,1,5,0.00
2013-8-7,84.0,71.8,57.4,62.7,57.9,51.3,99,65,41,29.96,29.83,17,4,17,0.00
2013-8-8,88.9,76.0,59.5,61.4,53.5,44.9,78,48,27,29.91,29.77,9,4,9,0.00
2013-8-9,89.6,77.0,61.7,61.5,51.2,42.5,62,42,27,29.88,28.46,16,4,16,0.00
2013-8-10,89.1,76.6,62.2,61.8,53.7,44.0,65,47,27,29.95,29.81,17,4,17,0.00
2013-8-11,86.5,74.8,61.7,65.7,62.2,58.1,89,66,46,29.92,29.77,15,4,15,0.01
2013-8-12,94.3,77.4,62.8,65.6,60.0,47.9,89,58,31,29.89,29.11,13,4,15,0.00
2013-8-13,93.9,79.0,66.0,62.7,53.0,40.2,65,42,24,29.94,29.76,8,3,8,0.01
2013-8-14,91.4,76.2,68.2,65.1,59.8,52.0,79,59,36,29.95,29.80,17,4,17,0.01
2013-8-15,93.0,75.8,66.9,62.8,58.1,54.6,79,57,31,29.93,29.78,11,2,11,0.01
2013-8-16,93.6,79.2,64.6,64.3,58.3,50.7,76,51,26,29.92,29.08,11,4,11,0.01
2013-8-17,95.7,81.8,64.6,65.6,56.5,48.3,78,45,26,29.94,29.73,13,4,13,0.01
2013-8-18,95.0,79.7,65.1,62.1,56.0,48.2,69,46,25,29.92,29.79,11,4,11,0.02
2013-8-19,94.5,78.9,68.0,64.5,55.4,49.5,66,46,27,29.92,29.79,22,4,22,0.01
2013-8-20,94.5,76.3,64.2,64.8,59.3,50.8,96,60,26,29.93,29.75,17,3,17,0.26
2013-8-21,79.2,66.7,61.7,65.0,61.5,58.2,94,84,52,29.92,29.83,11,3,11,0.04
2013-8-22,91.2,76.2,61.9,64.6,58.6,50.9,88,57,28,29.93,29.75,11,4,11,0.00
2013-8-23,89.6,76.3,62.8,63.9,57.4,50.6,97,56,27,29.86,29.68,15,4,15,0.04
2013-8-24,77.4,68.6,61.3,65.2,62.5,59.6,98,82,63,29.89,29.79,16,4,16,0.00
2013-8-25,82.4,72.4,64.2,68.0,65.3,62.2,98,80,56,29.93,29.82,11,3,11,0.00
2013-8-26,88.3,76.0,65.1,68.8,62.9,55.9,99,68,36,29.92,29.74,15,4,15,0.00
2013-8-27,89.1,77.1,63.3,62.4,57.7,50.2,83,54,28,29.87,29.70,14,5,14,0.00
2013-8-28,84.2,74.2,67.6,68.5,61.7,57.5,86,66,47,29.91,29.78,15,5,15,0.00
2013-8-29,75.2,69.1,65.5,70.7,66.3,63.4,99,91,76,30.00,29.90,11,2,11,0.00
2013-8-30,84.2,72.1,64.0,67.8,63.9,59.0,99,78,46,30.00,29.88,9,2,9,0.00
2013-8-31,90.9,74.8,62.8,65.9,60.5,57.4,86,63,34,29.95,29.79,14,4,14,0.00
2013-9-1,90.0,76.0,63.7,65.3,60.0,54.9,87,60,33,29.89,29.77,17,4,20,0.00
2013-9-2,89.8,75.0,62.8,65.9,61.1,57.5,94,64,36,29.92,29.73,22,4,22,0.09
2013-9-3,88.3,76.4,64.4,65.9,60.2,54.1,86,60,33,29.91,29.78,16,4,16,0.00
2013-9-4,90.0,75.8,63.0,64.1,56.6,50.8,84,55,28,29.93,29.78,107,4,107,0.00
2013-9-5,90.0,75.9,63.7,59.5,55.3,52.5,71,51,29,29.93,29.14,17,4,17,0.01
2013-9-6,90.0,75.0,64.4,62.8,56.9,54.1,87,56,31,29.93,29.79,24,4,24,0.05
2013-9-7,76.6,67.7,63.3,67.5,63.7,60.1,98,88,69,29.95,29.82,8,2,9,0.00
2013-9-8,79.2,68.7,63.0,67.8,63.8,62.1,99,86,62,29.87,29.73,7,2,7,0.00
2013-9-9,73.8,66.1,62.6,66.9,63.7,61.3,99,92,74,29.78,29.71,8,2,8,0.00
2013-9-10,83.3,68.9,60.1,67.5,60.3,56.1,99,77,42,29.87,29.77,10,3,10,0.00
2013-9-11,81.1,68.7,57.0,62.6,55.5,52.2,95,64,41,29.92,29.79,8,4,8,0.00
2013-9-12,85.5,71.7,61.0,65.2,59.6,53.3,96,68,45,29.86,29.69,9,3,9,0.00
2013-9-13,85.8,72.5,58.8,67.7,61.3,54.2,99,72,36,31.16,29.64,14,4,14,0.00
2013-9-14,81.7,69.2,61.3,65.9,62.4,57.5,93,79,56,29.75,29.70,14,5,14,0.00
2013-9-17,77.9,75.4,73.0,58.1,56.1,53.0,59,51,47,29.97,29.92,11,4,11,0.02
2013-9-18,90.9,77.3,61.9,59.9,54.7,47.8,81,49,29,30.03,29.87,9,3,9,0.00
2013-9-19,90.1,75.9,61.9,57.9,50.2,46.1,69,43,23,30.02,29.88,8,4,8,0.00
2013-9-20,90.3,71.1,60.8,65.3,57.5,46.1,96,65,33,30.12,29.96,16,4,16,0.09
2013-9-21,84.4,72.2,58.1,62.7,57.5,51.5,96,62,36,30.10,29.93,16,5,16,0.00
2013-9-22,85.3,72.6,61.7,62.5,57.8,51.6,85,61,37,29.96,29.85,21,5,21,0.00
2013-9-23,84.9,67.7,51.1,54.0,47.7,40.6,89,53,23,30.10,29.95,10,3,10,0.00
2013-9-24,89.6,71.1,52.5,49.1,42.4,31.9,65,39,22,30.18,30.01,11,3,11,0.00
2013-9-25,90.5,71.5,56.1,48.7,39.6,28.5,58,34,18,30.06,29.89,19,4,19,0.00
2013-9-26,85.8,71.8,55.4,55.3,42.2,26.5,65,36,22,29.99,29.88,29,4,29,0.01
2013-9-27,77.5,66.3,51.1,56.0,47.9,40.5,79,53,35,30.11,29.90,20,5,20,0.00
2013-9-28,79.0,64.4,50.2,47.2,42.5,35.9,67,47,28,30.21,30.09,14,4,14,0.00
2013-9-29,85.3,68.1,52.7,51.8,43.7,37.9,74,45,22,30.24,29.44,8,3,8,0.00
2013-9-30,86.5,68.5,53.4,45.3,39.1,31.4,56,37,19,30.18,30.00,13,3,13,0.00
2013-10-1,87.1,69.8,51.8,44.9,38.7,32.8,53,34,20,30.17,30.03,14,4,14,0.00
2013-10-2,86.2,68.8,53.1,47.6,40.8,35.0,66,39,19,30.16,29.99,14,4,14,0.00
2013-10-3,86.0,65.2,51.6,50.6,44.0,38.3,72,49,23,30.08,29.99,14,3,14,0.00
2013-10-5,58.1,55.5,52.9,24.3,21.3,18.3,32,26,24,29.95,29.93,9,5,9,0.00
2013-10-6,80.1,63.3,45.3,32.0,25.8,20.6,47,25,15,30.00,29.88,15,4,15,0.00
2013-10-7,86.4,69.9,54.1,42.1,30.8,18.9,35,24,17,29.96,29.78,16,5,16,0.00
2013-10-8,83.8,69.8,54.0,43.0,35.1,26.4,56,30,17,29.83,29.70,19,5,19,0.00
2013-10-9,81.0,68.4,55.8,48.4,38.7,30.8,52,35,18,29.74,29.63,35,10,35,0.00
2013-10-10,71.6,60.7,44.1,48.0,40.2,32.7,82,49,25,29.79,29.61,42,12,42,0.00
2013-10-11,75.0,56.3,41.5,46.4,38.4,29.0,93,57,21,29.84,29.72,12,3,12,0.00
2013-10-12,82.8,62.7,44.6,44.2,36.8,28.7,73,44,15,29.85,29.73,20,4,20,0.00
2013-10-13,60.4,57.2,54.1,45.2,43.2,41.0,65,59,54,29.86,29.80,8,2,8,0.00
2013-10-15,62.4,60.0,57.9,31.6,30.2,28.3,33,32,29,29.93,29.91,18,11,18,0.00
2013-10-16,78.3,58.2,42.4,33.9,25.3,11.0,60,31,15,30.03,29.92,18,4,18,0.01
2013-10-17,79.3,57.5,40.8,30.0,20.6,11.7,42,25,15,30.04,29.84,13,3,13,0.01
2013-10-18,75.2,58.0,40.5,30.0,22.3,15.1,45,26,16,31.24,29.90,9,3,9,0.01
2013-10-19,78.4,61.4,44.6,30.0,23.3,16.9,39,24,15,30.05,29.91,11,4,11,0.01
2013-10-20,78.4,61.5,47.5,29.2,21.5,15.6,33,22,15,29.98,29.84,17,5,17,0.01
2013-10-21,79.5,62.0,46.9,29.6,21.6,14.2,28,22,15,30.01,29.90,14,4,14,0.01
2013-10-22,79.3,63.9,47.3,30.0,23.3,15.7,32,22,15,30.07,29.92,14,5,14,0.01
2013-10-23,82.6,67.4,52.5,38.2,29.8,23.1,35,25,16,30.00,29.87,15,6,15,0.01
2013-10-24,86.4,67.5,51.1,43.9,33.1,26.3,50,29,17,30.00,29.87,18,5,18,0.02
2013-10-25,81.7,63.3,47.7,35.9,29.9,25.2,53,31,15,31.57,29.95,15,4,15,0.01
2013-10-26,79.0,63.0,47.5,33.8,27.5,20.5,52,27,16,30.10,29.96,14,4,14,0.08
2013-10-27,84.0,66.9,54.1,37.3,30.8,23.1,42,27,15,30.02,29.82,15,5,15,0.01
2013-10-28,76.3,63.2,46.0,34.4,28.8,23.1,53,29,16,29.93,29.82,30,10,30,0.11
2013-10-29,76.1,64.6,57.9,40.9,30.5,23.8,53,28,17,29.93,29.81,32,13,32,0.04
2013-10-30,71.2,58.2,39.4,44.6,35.9,24.8,70,46,22,29.98,29.84,33,10,33,0.02
2013-10-31,72.5,52.3,35.1,32.8,27.3,15.7,74,45,15,30.06,29.93,11,3,11,0.00
2013-11-1,72.7,47.3,0.0,23.9,18.4,13.5,29,16,15,29.96,29.83,9,2,9,0.06
2013-11-2,77.7,64.5,49.1,31.8,23.1,15.7,28,21,15,29.90,29.72,21,7,21,0.01
2013-11-3,75.4,63.3,48.7,55.3,46.2,41.8,86,56,35,29.74,29.61,19,6,19,0.02
2013-11-4,75.6,59.9,45.5,47.1,42.4,37.9,86,56,26,29.69,29.55,24,5,24,0.00
2013-11-5,70.3,56.3,44.8,42.3,37.5,29.7,74,52,24,29.91,29.63,21,6,22,0.00
2013-11-6,68.4,53.0,38.3,38.2,28.4,17.7,85,45,20,30.02,29.91,13,4,13,0.00
2013-11-7,72.1,58.8,41.7,34.2,27.0,19.4,50,30,20,30.04,29.87,18,7,19,0.00
2013-11-8,75.6,59.6,45.7,39.4,35.4,31.6,66,42,25,29.92,29.77,12,4,12,0.00
2013-11-9,74.3,56.3,46.0,40.0,35.2,32.1,60,47,24,29.92,29.82,8,3,8,0.00
2013-11-10,53.1,53.1,53.1,37.3,37.3,37.3,55,55,55,29.89,29.89,2,2,3,0.00
2013-11-11,78.8,62.4,47.8,42.9,38.0,34.6,70,43,23,29.93,29.81,8,3,8,0.00
2013-11-12,74.8,60.6,50.7,49.4,44.0,38.2,65,55,37,30.03,29.92,21,10,21,0.00
2013-11-13,69.4,57.3,48.9,46.0,43.5,40.6,76,61,42,30.01,29.83,20,8,20,0.00
2013-11-14,79.0,58.4,42.6,46.5,36.7,25.3,91,51,16,29.86,29.71,18,4,18,0.00
2013-11-15,69.6,60.6,50.5,51.5,46.4,36.8,80,60,41,29.72,29.48,43,17,43,0.02
2013-11-16,70.0,59.5,52.2,48.0,42.0,36.3,69,53,32,29.70,29.51,43,11,43,0.00
2013-11-17,72.0,56.2,43.7,46.7,42.2,39.3,89,62,32,29.86,29.70,19,4,22,0.00
2013-11-18,75.2,58.4,46.2,52.6,40.9,11.0,91,57,21,29.91,29.74,15,5,15,0.00
2013-11-19,78.1,58.1,43.9,43.2,32.6,22.9,73,43,16,29.84,29.66,12,4,12,0.00
2013-11-20,75.4,58.4,44.2,36.9,30.1,22.7,59,37,15,29.74,29.62,23,5,23,0.00
2013-11-21,72.0,59.2,50.0,48.4,43.3,33.6,72,57,34,29.77,29.68,22,6,22,0.00
2013-11-22,61.7,54.8,45.9,53.7,47.3,40.7,98,77,55,29.73,29.64,31,12,31,0.56
2013-11-23,52.2,41.7,38.7,45.9,40.9,38.4,99,97,77,29.83,29.70,26,11,27,0.46
2013-11-24,50.7,41.2,35.8,41.0,37.5,31.3,99,87,67,29.89,29.81,16,4,16,0.01
2013-11-25,54.7,40.8,28.8,39.6,33.4,28.3,99,78,41,29.97,29.85,10,3,10,0.01
2013-11-26,56.5,46.3,34.0,33.3,28.2,20.3,85,51,36,30.04,29.93,21,9,21,0.00
2013-11-27,54.9,46.1,37.4,25.4,22.0,17.9,60,39,27,29.97,29.81,21,10,21,0.00
2013-11-28,66.9,50.2,36.5,37.1,30.0,21.4,65,47,29,29.90,29.79,16,4,16,0.00
2013-11-29,72.5,54.6,39.7,44.6,37.0,30.8,85,55,22,29.98,29.85,13,3,13,0.01
2013-11-30,68.7,54.8,43.9,42.9,36.4,27.6,72,52,29,29.97,29.84,9,3,9,0.01
2013-12-1,63.3,55.0,46.8,40.9,35.1,29.1,60,47,32,29.99,29.90,8,2,8,0.00
2013-12-2,72.3,53.7,40.8,37.5,26.7,13.2,72,40,15,29.92,29.72,8,3,8,0.01
2013-12-3,71.2,55.2,37.2,44.5,29.2,14.0,65,39,17,29.72,29.57,24,5,24,0.02
2013-12-4,62.6,55.2,48.7,45.0,34.6,21.7,72,49,22,29.66,29.56,42,19,42,0.20
2013-12-5,48.9,42.7,32.5,44.7,37.4,27.7,97,82,54,29.79,29.61,39,12,39,0.30
2013-12-6,52.0,36.4,24.6,31.4,25.5,20.6,90,67,31,29.88,29.77,13,3,13,0.01
2013-12-7,59.4,41.8,26.8,31.8,20.5,8.9,85,49,21,29.81,29.70,23,6,23,0.01
2013-12-8,54.5,41.3,27.5,32.5,25.7,14.9,78,55,32,29.85,29.73,12,4,12,0.02
2013-12-9,54.1,37.2,27.9,36.4,24.9,13.8,94,65,22,29.99,29.78,10,3,10,0.01
2013-12-10,58.1,40.9,25.3,26.8,18.6,10.6,62,43,24,29.99,29.85,19,4,19,0.02
2013-12-11,65.8,49.6,34.7,41.0,31.6,23.1,75,51,34,29.98,29.89,18,5,18,0.04
2013-12-12,62.6,51.2,39.4,47.5,37.8,22.8,88,62,34,29.99,29.82,17,7,17,0.02
2013-12-13,57.7,44.0,32.2,38.2,29.6,15.3,88,60,31,29.92,29.82,18,4,18,0.00
2013-12-14,58.8,43.5,30.4,30.4,22.7,14.2,70,46,24,30.03,29.90,11,4,11,0.02
2013-12-15,63.5,45.6,29.7,26.5,19.4,12.8,62,37,20,30.05,29.93,14,4,14,0.01
2013-12-16,71.2,51.5,35.4,25.2,20.8,16.2,53,32,17,30.04,29.94,9,3,9,0.02
2013-12-17,74.3,49.4,41.2,30.6,18.9,15.2,44,31,15,30.06,29.92,10,3,10,0.01
2013-12-18,67.3,55.7,46.4,29.6,20.7,15.2,45,26,19,29.93,29.69,14,4,14,0.01
2013-12-19,62.6,54.3,47.5,26.2,20.6,16.3,36,27,20,29.69,29.53,40,12,40,0.40
2013-12-20,50.9,41.7,0.0,41.7,33.8,21.5,96,75,32,30.34,29.43,32,10,32,0.22
2013-12-21,47.5,40.4,34.2,36.3,33.1,28.8,89,75,61,30.18,29.96,28,11,28,0.01
2013-12-22,51.4,39.7,28.9,37.0,29.2,24.5,91,68,38,30.40,30.17,21,4,21,0.00
2013-12-23,58.1,41.7,30.4,33.4,23.5,16.8,79,52,24,30.50,29.65,17,5,17,0.01
2013-12-24,61.9,44.3,29.7,29.4,24.1,17.4,67,47,24,30.42,30.28,14,4,14,0.02
2013-12-25,60.6,47.4,33.8,29.8,25.1,21.5,66,44,24,30.42,30.32,17,6,17,0.00
2013-12-26,56.8,43.0,30.6,28.9,23.4,16.9,70,47,29,30.42,30.31,20,5,20,0.01
2013-12-27,58.8,43.6,28.2,26.5,20.5,11.1,55,40,26,30.40,30.29,18,6,18,0.04
2013-12-28,59.0,47.9,32.0,31.3,24.3,18.0,64,41,24,30.33,30.14,14,4,14,0.01
2013-12-29,59.9,46.0,34.7,29.8,23.5,18.9,60,43,24,30.30,30.12,10,4,10,0.02
2013-12-30,61.2,48.1,33.6,29.8,21.5,13.5,63,37,22,30.41,30.30,8,4,8,0.01
2013-12-31,64.6,49.1,36.9,23.5,19.5,14.6,50,32,20,30.40,30.26,15,5,15,0.01
2014-1-1,67.1,50.2,36.1,25.1,20.7,15.5,49,33,18,30.33,30.22,9,4,9,0.01
2014-1-2,66.2,52.8,39.7,24.2,22.2,18.8,50,31,19,30.39,30.25,17,6,17,0.01